Time;durP1;ratioP1;P1;durP2;ratioP2;P2;SDS_P1;SDS_P2;PMS_P1;PMS_P2;Temp;Humidity;BMP_temperature;BMP_pressure;BME280_temperature;BME280_humidity;BME280_pressure;Samples;Min_cycle;Max_cycle;Signal;HPM_P1;HPM_P2
2022/05/31 00:02:19;;;;;;;69.10;31.10;;;;;;;19.97;58.15;99249.73;25044;1318;3026204;-63
2022/05/31 00:04:49;;;;;;;79.50;33.90;;;;;;;19.87;58.56;99248.58;25023;1316;3051511;-60
2022/05/31 00:07:18;;;;;;;79.90;36.30;;;;;;;19.80;59.16;99245.92;25058;1316;3026791;-63
2022/05/31 00:09:47;;;;;;;86.90;35.40;;;;;;;19.72;59.45;99245.69;25077;1315;3026998;-63
2022/05/31 00:12:18;;;;;;;79.50;32.50;;;;;;;19.67;59.67;99246.56;25078;1315;3026995;-62
2022/05/31 00:14:53;;;;;;;85.50;33.80;;;;;;;19.65;59.58;99246.39;25071;1315;3056023;-67
2022/05/31 00:17:22;;;;;;;74.70;29.70;;;;;;;19.60;59.94;99252.02;25072;1315;3026540;-60
2022/05/31 00:19:51;;;;;;;65.80;29.90;;;;;;;19.57;59.52;99253.62;25031;1315;3052108;-63
2022/05/31 00:22:21;;;;;;;63.20;24.20;;;;;;;19.56;59.65;99250.30;25035;1315;3026111;-61
2022/05/31 00:24:50;;;;;;;53.60;20.40;;;;;;;19.62;59.05;99249.00;25065;1316;3056415;-61
2022/05/31 00:27:21;;;;;;;44.10;18.70;;;;;;;19.69;58.78;99251.18;25105;1315;3026410;-61
2022/05/31 00:29:50;;;;;;;39.90;15.30;;;;;;;19.75;58.46;99250.58;25086;1316;3054842;-60
2022/05/31 00:32:24;;;;;;;37.30;15.10;;;;;;;19.78;58.25;99247.39;25121;1316;3026828;-64
2022/05/31 00:34:54;;;;;;;34.70;16.20;;;;;;;19.81;58.22;99246.93;25114;1316;3050294;-64
2022/05/31 00:37:23;;;;;;;50.90;17.60;;;;;;;19.78;58.51;99244.20;25094;1315;3026043;-62
2022/05/31 00:39:53;;;;;;;39.70;14.50;;;;;;;19.77;58.46;99244.30;25044;1315;3027268;-63
2022/05/31 00:42:22;;;;;;;41.80;16.10;;;;;;;19.76;58.45;99246.98;24784;1315;3051551;-62
2022/05/31 00:44:51;;;;;;;38.50;15.50;;;;;;;19.74;58.64;99244.41;25140;1316;3026708;-64
2022/05/31 00:47:32;;;;;;;31.60;14.00;;;;;;;19.74;58.73;99244.91;25064;1316;3026363;-62
2022/05/31 00:50:08;;;;;;;42.30;16.30;;;;;;;19.72;58.40;99245.10;25051;1315;3053420;-62
2022/05/31 00:52:45;;;;;;;45.10;17.00;;;;;;;19.72;58.79;99243.40;25108;1314;3055374;-61
2022/05/31 00:55:14;;;;;;;37.70;15.20;;;;;;;19.71;58.85;99243.09;25042;1315;3054163;-62
2022/05/31 00:57:50;;;;;;;37.80;16.90;;;;;;;19.69;59.28;99248.00;25076;1316;3028731;-63
2022/05/31 01:00:19;;;;;;;43.10;17.50;;;;;;;19.68;59.64;99248.77;25039;1316;3049171;-59
2022/05/31 01:02:49;;;;;;;50.90;20.70;;;;;;;19.71;59.57;99253.91;25008;1316;3026813;-63
2022/05/31 01:05:18;;;;;;;54.30;20.30;;;;;;;19.71;59.36;99254.34;25027;1319;3026432;-63
2022/05/31 01:07:50;;;;;;;70.00;24.30;;;;;;;19.74;59.49;99247.08;25085;1316;3026444;-63
2022/05/31 01:10:19;;;;;;;58.80;23.50;;;;;;;19.65;60.31;99247.83;25095;1316;3026455;-62
2022/05/31 01:13:16;;;;;;;50.40;22.80;;;;;;;19.53;61.03;99253.44;24948;1316;3056469;-63
2022/05/31 01:16:07;;;;;;;57.40;22.60;;;;;;;19.33;62.09;99251.93;25094;1315;3059343;-63
2022/05/31 01:18:55;;;;;;;52.90;23.60;;;;;;;19.16;63.22;99254.83;25102;1315;3052246;-62
2022/05/31 01:21:43;;;;;;;51.80;22.20;;;;;;;18.99;64.18;99260.46;25170;1316;3052712;-61
2022/05/31 01:24:29;;;;;;;63.40;21.40;;;;;;;18.82;64.78;99270.77;25165;1316;3054083;-62
2022/05/31 01:27:07;;;;;;;42.60;19.10;;;;;;;18.65;66.20;99270.14;25026;1318;3026484;-61
2022/05/31 01:29:37;;;;;;;33.50;13.70;;;;;;;18.65;66.23;99273.38;25095;1315;3053479;-61
2022/05/31 01:32:10;;;;;;;31.40;13.50;;;;;;;19.17;64.74;99266.52;25072;1316;3026547;-62
2022/05/31 01:35:10;;;;;;;41.40;15.00;;;;;;;19.55;63.17;99268.94;25072;1316;3026874;-61
2022/05/31 01:37:50;;;;;;;27.00;12.70;;;;;;;19.39;63.79;99266.04;25032;1316;3049169;-61
2022/05/31 01:40:47;;;;;;;33.30;15.30;;;;;;;19.22;64.04;99269.85;25004;1316;3055148;-64
2022/05/31 01:43:16;;;;;;;33.30;14.40;;;;;;;19.01;64.83;99265.58;25059;1315;3054116;-61
2022/05/31 01:45:57;;;;;;;33.70;15.90;;;;;;;18.91;65.11;99267.93;25122;1315;3027219;-60
2022/05/31 01:48:27;;;;;;;33.80;15.70;;;;;;;18.70;66.12;99272.30;25042;1315;3050183;-63
2022/05/31 01:50:59;;;;;;;36.30;16.80;;;;;;;18.51;66.61;99272.73;25072;1316;3026476;-59
2022/05/31 01:53:28;;;;;;;41.20;17.10;;;;;;;18.33;67.38;99272.00;25037;1315;3026533;-62
2022/05/31 01:55:57;;;;;;;42.40;18.30;;;;;;;18.21;67.72;99270.23;24966;1315;3052321;-64
2022/05/31 01:58:29;;;;;;;31.20;14.70;;;;;;;18.16;68.53;99269.69;25088;1316;3026818;-61
2022/05/31 02:00:59;;;;;;;29.50;14.50;;;;;;;18.69;66.74;99273.14;25011;1316;3055867;-61
2022/05/31 02:03:28;;;;;;;36.10;17.10;;;;;;;18.84;66.19;99271.67;25037;1316;3027017;-62
2022/05/31 02:05:58;;;;;;;54.70;25.10;;;;;;;18.79;66.16;99272.84;25057;1315;3026064;-64
2022/05/31 02:08:33;;;;;;;63.80;24.50;;;;;;;18.84;65.15;99272.17;25081;1315;3057420;-63
2022/05/31 02:11:02;;;;;;;46.60;19.80;;;;;;;18.74;66.06;99275.23;25016;1316;3050235;-63
2022/05/31 02:13:34;;;;;;;42.90;19.60;;;;;;;18.67;66.04;99271.41;25090;1315;3026678;-65
2022/05/31 02:16:14;;;;;;;39.70;17.40;;;;;;;18.47;67.07;99273.27;25035;1316;3053484;-59
2022/05/31 02:21:56;;;;;;;58.60;25.90;;;;;;;18.17;68.60;99272.59;25098;1316;3049978;-61
2022/05/31 02:24:25;;;;;;;69.60;28.90;;;;;;;18.18;68.71;99269.30;25017;1315;3026914;-63
2022/05/31 02:26:55;;;;;;;48.00;21.60;;;;;;;18.78;66.92;99265.54;25005;1316;3026445;-63
2022/05/31 02:29:26;;;;;;;44.60;20.80;;;;;;;19.06;65.96;99261.20;25071;1316;3027252;-61
2022/05/31 02:31:59;;;;;;;28.20;15.50;;;;;;;19.05;65.51;99260.16;25044;1315;3052677;-61
2022/05/31 02:34:30;;;;;;;32.40;15.30;;;;;;;19.02;65.33;99257.70;25134;1316;3027473;-64
2022/05/31 02:36:59;;;;;;;32.10;14.30;;;;;;;18.87;65.17;99260.07;25023;1315;3027546;-62
2022/05/31 02:39:28;;;;;;;30.00;14.10;;;;;;;18.84;65.52;99261.20;25070;1316;3026921;-61
2022/05/31 02:41:58;;;;;;;27.70;14.40;;;;;;;18.82;65.39;99264.56;25132;1316;3051519;-62
2022/05/31 02:44:28;;;;;;;27.50;14.40;;;;;;;18.86;65.28;99265.27;25136;1316;3027962;-60
2022/05/31 02:46:57;;;;;;;35.70;15.20;;;;;;;18.92;65.22;99266.13;25107;1316;3026753;-60
2022/05/31 02:49:27;;;;;;;23.80;13.70;;;;;;;18.87;65.28;99257.16;25059;1316;3026792;-63
2022/05/31 02:51:58;;;;;;;30.70;14.90;;;;;;;18.82;65.03;99258.58;25054;1314;3056669;-64
2022/05/31 02:54:28;;;;;;;32.30;11.40;;;;;;;18.82;65.44;99260.14;25064;1315;3026851;-64
2022/05/31 02:57:16;;;;;;;28.30;12.70;;;;;;;19.56;63.74;99257.26;25051;1315;3053051;-63
2022/05/31 02:59:48;;;;;;;29.80;14.10;;;;;;;20.06;61.99;99254.14;25087;1316;3026164;-62
2022/05/31 03:02:37;;;;;;;23.00;14.20;;;;;;;20.17;61.38;99255.31;25040;1314;3072085;-61
2022/05/31 03:05:25;;;;;;;29.70;14.00;;;;;;;19.93;61.76;99253.14;25059;1315;3052052;-63
2022/05/31 03:08:32;;;;;;;32.60;15.60;;;;;;;19.76;62.35;99254.35;25041;1316;3055359;-61
2022/05/31 03:11:23;;;;;;;34.30;15.50;;;;;;;19.64;62.58;99250.59;25075;1316;3055595;-63
2022/05/31 03:13:55;;;;;;;28.70;15.10;;;;;;;19.58;62.64;99252.93;24996;1316;3058881;-63
2022/05/31 03:16:24;;;;;;;30.90;14.90;;;;;;;19.53;62.49;99256.27;25127;1315;3026160;-62
2022/05/31 03:18:55;;;;;;;30.80;15.40;;;;;;;19.54;62.57;99258.56;24992;1315;3026465;-62
2022/05/31 03:21:26;;;;;;;34.10;16.10;;;;;;;19.53;62.66;99257.94;25044;1315;3058200;-61
2022/05/31 03:23:58;;;;;;;29.80;14.90;;;;;;;19.54;62.56;99257.25;25054;1315;3026973;-63
2022/05/31 03:26:27;;;;;;;33.30;15.50;;;;;;;19.52;62.74;99259.48;25033;1316;3028193;-62
2022/05/31 03:28:56;;;;;;;28.60;14.90;;;;;;;19.49;62.71;99260.24;25111;1315;3026538;-61
2022/05/31 03:31:25;;;;;;;29.30;13.80;;;;;;;19.52;62.67;99254.08;25013;1316;3052860;-64
2022/05/31 03:33:54;;;;;;;23.70;14.30;;;;;;;19.58;62.52;99247.85;25036;1318;3026826;-61
2022/05/31 03:36:23;;;;;;;29.30;15.80;;;;;;;19.62;62.31;99248.64;25043;1315;3058196;-62
2022/05/31 03:38:58;;;;;;;28.50;14.10;;;;;;;19.65;62.48;99250.86;25076;1315;3049068;-63
2022/05/31 03:41:29;;;;;;;23.60;13.50;;;;;;;19.73;62.02;99256.80;25074;1315;3026657;-62
2022/05/31 03:43:58;;;;;;;25.00;13.40;;;;;;;19.79;61.98;99260.77;24923;1318;3026912;-63
2022/05/31 03:46:53;;;;;;;33.10;13.20;;;;;;;19.87;61.79;99262.34;25048;1316;3071643;-64
2022/05/31 03:49:46;;;;;;;29.80;14.00;;;;;;;19.90;62.29;99257.52;24933;1316;3050654;-62
2022/05/31 03:52:18;;;;;;;27.50;13.30;;;;;;;19.95;61.79;99254.89;25035;1315;3026915;-62
2022/05/31 03:54:48;;;;;;;26.50;13.70;;;;;;;20.04;61.63;99257.14;25060;1315;3029180;-64
2022/05/31 03:57:19;;;;;;;29.70;13.80;;;;;;;20.14;61.35;99257.27;24987;1315;3026774;-62
2022/05/31 04:00:03;;;;;;;21.10;12.20;;;;;;;20.19;61.75;99255.10;25008;1315;3054748;-60
2022/05/31 04:02:51;;;;;;;21.90;12.20;;;;;;;20.20;61.80;99252.29;25041;1315;3055692;-61
2022/05/31 04:05:22;;;;;;;25.40;12.50;;;;;;;20.26;61.49;99255.48;25030;1316;3026656;-62
2022/05/31 04:08:12;;;;;;;23.00;12.00;;;;;;;20.32;61.35;99249.61;24948;1315;3049642;-64
2022/05/31 04:10:42;;;;;;;28.90;12.60;;;;;;;20.39;61.19;99249.84;25032;1315;3026524;-63
2022/05/31 04:13:12;;;;;;;33.10;13.30;;;;;;;20.44;61.23;99245.31;25119;1315;3026865;-64
2022/05/31 04:15:48;;;;;;;23.70;12.00;;;;;;;20.45;61.47;99244.88;25077;1316;3071098;-64
2022/05/31 04:18:17;;;;;;;29.90;12.20;;;;;;;20.48;61.49;99244.59;25052;1315;3026906;-62
2022/05/31 04:20:47;;;;;;;34.00;12.40;;;;;;;20.58;61.26;99243.92;25119;1316;3051536;-61
2022/05/31 04:26:29;;;;;;;21.40;10.90;;;;;;;20.76;60.20;99236.85;25067;1316;3050246;-60
2022/05/31 04:29:19;;;;;;;20.90;11.50;;;;;;;20.81;59.97;99237.81;25040;1316;3054785;-63
2022/05/31 04:32:07;;;;;;;23.20;11.60;;;;;;;20.84;60.34;99237.48;25010;1315;3056430;-64
2022/05/31 04:35:03;;;;;;;27.20;11.90;;;;;;;20.90;60.34;99237.66;24954;1315;3058819;-61
2022/05/31 04:37:32;;;;;;;31.50;11.30;;;;;;;20.97;60.13;99237.88;24999;1315;3026712;-61
2022/05/31 04:40:31;;;;;;;25.90;11.00;;;;;;;21.07;59.64;99241.77;24907;1319;3055692;-63
2022/05/31 04:43:03;;;;;;;24.10;11.80;;;;;;;21.15;59.17;99244.85;25054;1316;3026137;-60
2022/05/31 04:45:50;;;;;;;25.20;11.40;;;;;;;21.23;58.93;99244.48;25073;1316;3072253;-60
2022/05/31 04:48:49;;;;;;;31.50;11.10;;;;;;;21.30;58.81;99246.05;25019;1316;3051520;-62
2022/05/31 04:51:18;;;;;;;31.60;11.40;;;;;;;21.36;58.40;99247.35;25004;1315;3026867;-60
2022/05/31 04:53:54;;;;;;;25.70;12.10;;;;;;;21.40;58.16;99245.44;25045;1316;3055707;-62
2022/05/31 04:56:48;;;;;;;22.30;10.70;;;;;;;21.44;58.29;99247.10;25050;1316;3059306;-61
2022/05/31 04:59:17;;;;;;;24.40;11.40;;;;;;;21.52;58.27;99250.41;24995;1315;3026545;-62
2022/05/31 05:01:46;;;;;;;31.40;11.00;;;;;;;21.60;57.82;99248.25;25038;1316;3055047;-63
2022/05/31 05:04:20;;;;;;;26.40;11.80;;;;;;;21.68;57.52;99250.88;25068;1315;3056101;-63
2022/05/31 05:06:57;;;;;;;31.80;11.90;;;;;;;21.72;57.63;99247.33;25020;1315;3052469;-62
2022/05/31 05:09:28;;;;;;;25.60;11.70;;;;;;;21.77;57.09;99248.75;25051;1315;3029157;-61
2022/05/31 05:12:27;;;;;;;19.90;10.90;;;;;;;21.78;57.38;99252.35;24986;1319;3052873;-63
2022/05/31 05:15:05;;;;;;;22.40;11.40;;;;;;;21.82;57.34;99254.24;24991;1315;3071048;-60
2022/05/31 05:17:34;;;;;;;29.20;12.20;;;;;;;21.91;57.25;99252.89;25005;1318;3026730;-63
2022/05/31 05:20:04;;;;;;;30.40;12.40;;;;;;;22.00;57.30;99251.55;25025;1315;3026671;-63
2022/05/31 05:22:33;;;;;;;28.40;13.30;;;;;;;22.08;57.43;99250.37;25084;1316;3071122;-60
2022/05/31 05:25:03;;;;;;;24.40;12.60;;;;;;;22.16;57.16;99242.51;25080;1316;3026792;-63
2022/05/31 05:27:52;;;;;;;23.70;12.30;;;;;;;22.24;57.15;99242.80;25049;1316;3054518;-64
2022/05/31 05:30:39;;;;;;;34.10;12.10;;;;;;;22.30;56.90;99240.83;25058;1316;3070239;-60
2022/05/31 05:33:22;;;;;;;26.80;12.00;;;;;;;22.34;57.01;99242.80;25116;1313;3051281;-60
2022/05/31 05:36:14;;;;;;;32.50;13.20;;;;;;;22.43;56.77;99243.71;25031;1315;3055127;-63
2022/05/31 05:38:43;;;;;;;27.20;12.60;;;;;;;22.41;56.89;99238.23;24968;1315;3026331;-63
2022/05/31 05:41:42;;;;;;;31.00;13.00;;;;;;;22.50;56.90;99240.80;25019;1316;3059429;-63
2022/05/31 05:44:42;;;;;;;32.50;12.00;;;;;;;22.64;56.43;99242.59;25076;1316;3052595;-62
2022/05/31 05:47:15;;;;;;;31.60;12.90;;;;;;;22.75;56.12;99241.69;25050;1316;3026675;-62
2022/05/31 05:49:44;;;;;;;33.80;12.70;;;;;;;22.83;56.35;99240.97;25123;1313;3026082;-64
2022/05/31 05:52:32;;;;;;;33.00;13.10;;;;;;;22.90;56.49;99236.02;25091;1313;3069804;-64
2022/05/31 05:55:28;;;;;;;30.60;12.30;;;;;;;22.96;56.36;99226.04;25032;1316;3053105;-64
2022/05/31 05:58:16;;;;;;;32.80;12.70;;;;;;;23.05;56.24;99214.41;25114;1316;3055155;-62
2022/05/31 06:01:06;;;;;;;33.40;12.70;;;;;;;23.15;56.19;99212.65;25444;1315;3055384;-61
2022/05/31 06:03:45;;;;;;;28.10;12.70;;;;;;;23.21;55.77;99212.92;25423;1316;3057186;-61
2022/05/31 06:06:14;;;;;;;34.00;12.60;;;;;;;23.28;55.77;99215.39;25375;1316;3049733;-59
2022/05/31 06:08:51;;;;;;;20.70;12.10;;;;;;;23.36;55.51;99220.09;25084;1316;3026452;-63
2022/05/31 06:11:22;;;;;;;35.00;13.50;;;;;;;23.45;55.68;99220.39;25145;1315;3051859;-63
2022/05/31 06:13:53;;;;;;;30.40;12.50;;;;;;;23.55;55.52;99216.95;25126;1315;3026658;-61
2022/05/31 06:16:28;;;;;;;30.40;14.10;;;;;;;23.65;55.21;99219.74;25103;1316;3028016;-63
2022/05/31 06:19:04;;;;;;;30.70;13.90;;;;;;;23.64;55.46;99217.34;25102;1315;3051174;-62
2022/05/31 06:21:34;;;;;;;34.20;14.10;;;;;;;23.60;55.57;99218.33;25014;1315;3052718;-63
2022/05/31 06:24:12;;;;;;;27.00;13.30;;;;;;;23.69;55.33;99222.14;25086;1316;3057009;-63
2022/05/31 06:26:42;;;;;;;24.30;11.80;;;;;;;23.84;54.84;99225.94;25020;1315;3026746;-61
2022/05/31 06:29:11;;;;;;;28.50;12.60;;;;;;;23.94;54.52;99234.70;25083;1315;3026205;-62
2022/05/31 06:31:40;;;;;;;33.30;13.60;;;;;;;24.04;54.11;99242.70;24970;1316;3056690;-62
2022/05/31 06:34:18;;;;;;;27.90;12.30;;;;;;;24.09;53.76;99250.76;25079;1316;3049909;-61
2022/05/31 06:37:11;;;;;;;32.10;13.00;;;;;;;24.10;53.65;99254.73;25064;1315;3055259;-62
2022/05/31 06:39:43;;;;;;;35.80;13.70;;;;;;;24.10;53.34;99255.14;24991;1315;3026789;-61
2022/05/31 06:42:29;;;;;;;27.50;12.30;;;;;;;24.21;53.12;99256.23;25037;1316;3069773;-61
2022/05/31 06:45:33;;;;;;;28.70;12.80;;;;;;;24.30;52.71;99251.32;24834;1323;3052269;-61
2022/05/31 06:48:24;;;;;;;28.80;12.70;;;;;;;24.38;52.59;99253.26;25079;1316;3055369;-62
2022/05/31 06:51:12;;;;;;;33.80;12.50;;;;;;;24.44;52.43;99253.50;25095;1316;3051807;-61
2022/05/31 06:57:30;;;;;;;29.70;11.40;;;;;;;24.67;51.60;99246.98;25102;1314;3052472;-62
2022/05/31 07:00:14;;;;;;;32.40;12.90;;;;;;;24.75;51.45;99244.77;25058;1316;3055629;-64
2022/05/31 07:02:44;;;;;;;40.30;12.90;;;;;;;24.78;51.42;99243.86;25076;1315;3026515;-64
2022/05/31 07:05:13;;;;;;;30.00;12.30;;;;;;;24.89;51.34;99247.83;25049;1316;3026468;-62
2022/05/31 07:07:42;;;;;;;31.20;14.00;;;;;;;24.97;50.88;99245.66;25067;1316;3026260;-62
2022/05/31 07:10:32;;;;;;;31.60;15.30;;;;;;;25.08;50.88;99243.66;25099;1316;3054753;-64
2022/05/31 07:13:24;;;;;;;29.80;14.60;;;;;;;25.19;50.53;99241.72;24961;1316;3055192;-59
2022/05/31 07:16:12;;;;;;;30.60;16.10;;;;;;;25.27;50.51;99234.48;25069;1315;3059685;-62
2022/05/31 07:19:00;;;;;;;37.00;14.10;;;;;;;25.31;50.37;99233.14;25106;1315;3050156;-62
2022/05/31 07:21:32;;;;;;;29.90;13.20;;;;;;;25.43;50.32;99235.23;25112;1316;3026576;-63
2022/05/31 07:24:01;;;;;;;33.00;13.50;;;;;;;25.54;49.86;99231.55;25064;1314;3027367;-62
2022/05/31 07:26:32;;;;;;;28.00;13.00;;;;;;;25.64;49.89;99227.36;25102;1316;3051796;-64
2022/05/31 07:29:01;;;;;;;32.70;11.90;;;;;;;25.77;49.62;99230.22;25002;1315;3026489;-61
2022/05/31 07:31:30;;;;;;;27.50;11.40;;;;;;;25.91;49.38;99227.48;25075;1315;3058701;-60
2022/05/31 07:34:06;;;;;;;35.80;13.40;;;;;;;26.03;48.96;99228.91;25115;1316;3050359;-63
2022/05/31 07:36:37;;;;;;;28.70;13.20;;;;;;;26.06;49.13;99227.42;25178;1315;3027329;-61
2022/05/31 07:39:14;;;;;;;29.60;13.40;;;;;;;26.17;49.25;99227.92;25001;1315;3055117;-66
2022/05/31 07:41:45;;;;;;;31.30;13.40;;;;;;;26.25;48.68;99226.05;25370;1313;3026629;-65
2022/05/31 07:44:18;;;;;;;;;;;;;;;26.27;48.60;99229.70;25065;1315;3048886;-64
2022/05/31 07:46:48;;;;;;;39.70;14.50;;;;;;;26.28;48.57;99231.04;25135;1316;3026509;-63
2022/05/31 07:49:17;;;;;;;35.90;14.60;;;;;;;26.42;48.47;99233.11;25099;1315;3026414;-63
2022/05/31 07:51:56;;;;;;;41.00;15.70;;;;;;;26.53;48.30;99236.01;25125;1316;3055870;-64
2022/05/31 07:54:48;;;;;;;36.90;15.70;;;;;;;26.69;48.11;99230.30;24994;1315;3051253;-61
2022/05/31 08:00:40;;;;;;;46.30;19.30;;;;;;;26.94;47.24;99221.98;25077;1316;3051700;-64
2022/05/31 08:03:09;;;;;;;49.60;19.30;;;;;;;27.04;46.91;99218.67;25014;1315;3026753;-61
2022/05/31 08:05:39;;;;;;;53.40;21.00;;;;;;;27.13;46.73;99220.88;25121;1316;3026669;-64
2022/05/31 08:08:09;;;;;;;51.60;21.50;;;;;;;27.19;46.19;99218.64;25158;1315;3053762;-65
2022/05/31 08:10:39;;;;;;;69.80;23.00;;;;;;;27.30;46.18;99217.77;25013;1315;3026803;-64
2022/05/31 08:13:08;;;;;;;60.00;23.80;;;;;;;27.37;46.01;99214.70;25135;1315;3026569;-63
2022/05/31 08:15:38;;;;;;;56.00;25.20;;;;;;;27.48;46.13;99208.73;25139;1315;3026536;-61
2022/05/31 08:18:08;;;;;;;66.80;27.40;;;;;;;27.61;45.96;99209.45;25093;1316;3027411;-61
2022/05/31 08:20:38;;;;;;;67.50;26.60;;;;;;;27.70;45.63;99208.94;25021;1315;3026368;-63
2022/05/31 08:23:10;;;;;;;66.60;28.30;;;;;;;27.77;45.31;99209.33;25127;1314;3054993;-61
2022/05/31 08:25:40;;;;;;;76.20;28.50;;;;;;;27.84;45.09;99208.55;25139;1315;3026291;-61
2022/05/31 08:28:09;;;;;;;99.20;27.30;;;;;;;27.90;45.00;99204.47;25058;1315;3026536;-67
2022/05/31 08:30:38;;;;;;;73.20;28.70;;;;;;;27.97;44.63;99200.48;25084;1315;3054441;-62
2022/05/31 08:33:07;;;;;;;76.20;28.50;;;;;;;27.97;44.83;99202.17;25073;1315;3026129;-62
2022/05/31 08:35:37;;;;;;;77.20;29.30;;;;;;;28.13;44.80;99202.80;25040;1316;3051484;-63
2022/05/31 08:38:06;;;;;;;65.80;29.00;;;;;;;28.25;44.60;99195.23;25113;1313;3026390;-62
2022/05/31 08:40:57;;;;;;;78.40;30.50;;;;;;;28.35;44.44;99196.13;25024;1316;3067923;-60
2022/05/31 08:43:35;;;;;;;82.00;31.00;;;;;;;28.43;43.98;99196.17;25062;1315;3053177;-61
2022/05/31 08:46:08;;;;;;;65.00;28.60;;;;;;;28.50;43.99;99193.98;25120;1313;3055117;-62
2022/05/31 08:48:45;;;;;;;75.20;30.60;;;;;;;28.60;43.66;99191.79;25012;1315;3026353;-60
2022/05/31 08:57:07;;;;;;;86.60;30.30;;;;;;;28.97;43.06;99190.35;25069;1315;3053207;-62
2022/05/31 09:00:07;;;;;;;66.90;28.90;;;;;;;29.01;43.13;99190.32;25084;1315;3051514;-63
2022/05/31 09:02:44;;;;;;;70.90;29.60;;;;;;;29.11;43.10;99189.13;25094;1316;3071677;-60
2022/05/31 09:05:31;;;;;;;65.50;26.30;;;;;;;29.21;42.73;99181.45;25111;1315;3049003;-61
2022/05/31 09:08:15;;;;;;;74.70;26.40;;;;;;;29.30;42.69;99178.45;25165;1315;3052708;-63
2022/05/31 09:10:52;;;;;;;61.40;26.50;;;;;;;29.44;42.19;99178.92;25094;1316;3051456;-61
2022/05/31 09:13:38;;;;;;;58.50;25.70;;;;;;;29.54;41.90;99180.79;25026;1316;3059186;-60
2022/05/31 09:16:17;;;;;;;74.60;26.70;;;;;;;29.59;41.69;99178.32;25023;1315;3052607;-62
2022/05/31 09:18:51;;;;;;;64.50;26.90;;;;;;;29.64;41.62;99178.94;25096;1315;3052600;-61
2022/05/31 09:21:38;;;;;;;74.60;28.10;;;;;;;29.72;41.30;99175.70;25064;1315;3054363;-60
2022/05/31 09:24:12;;;;;;;68.40;28.30;;;;;;;29.78;41.52;99178.70;25017;1315;3069600;-62
2022/05/31 09:26:53;;;;;;;58.40;26.90;;;;;;;29.87;41.32;99178.61;25077;1315;3049184;-62
2022/05/31 09:29:44;;;;;;;71.00;26.90;;;;;;;29.98;41.67;99180.98;25084;1316;3053968;-61
2022/05/31 09:32:22;;;;;;;63.20;24.20;;;;;;;30.15;41.10;99180.79;25102;1313;3055546;-61
2022/05/31 09:35:10;;;;;;;57.20;24.90;;;;;;;30.30;40.63;99184.58;25635;1313;3057142;-62
2022/05/31 09:37:53;;;;;;;74.60;25.30;;;;;;;30.41;40.14;99183.88;25226;1315;3050321;-62
2022/05/31 09:40:51;;;;;;;67.50;25.40;;;;;;;30.42;40.37;99185.33;25083;1316;3052876;-62
2022/05/31 09:43:48;;;;;;;53.40;21.90;;;;;;;30.51;39.92;99182.27;25071;1315;3054103;-61
2022/05/31 09:46:25;;;;;;;46.00;19.20;;;;;;;30.64;39.59;99187.38;24964;1313;3071555;-61
2022/05/31 09:48:54;;;;;;;43.20;17.90;;;;;;;30.75;38.83;99183.00;25134;1315;3050275;-61
2022/05/31 09:51:38;;;;;;;38.60;18.50;;;;;;;30.88;38.88;99185.67;25119;1316;3027092;-61
2022/05/31 09:57:24;;;;;;;58.20;20.70;;;;;;;31.19;38.38;99182.10;25138;1313;3060400;-62
2022/05/31 10:00:23;;;;;;;49.30;19.30;;;;;;;31.25;38.18;99181.96;25029;1318;3051055;-61
2022/05/31 10:03:12;;;;;;;44.10;17.10;;;;;;;31.42;37.82;99176.10;25075;1316;3054206;-63
2022/05/31 10:05:42;;;;;;;37.90;16.00;;;;;;;31.44;37.22;99174.73;25083;1313;3050917;-61
2022/05/31 10:08:33;;;;;;;32.70;15.40;;;;;;;31.30;37.68;99183.42;25054;1315;3026911;-62
2022/05/31 10:11:29;;;;;;;39.00;16.70;;;;;;;31.16;37.67;99185.45;25078;1316;3052424;-62
2022/05/31 10:14:04;;;;;;;26.50;11.90;;;;;;;31.17;37.41;99182.97;25078;1315;3051428;-64
2022/05/31 10:16:34;;;;;;;31.50;11.60;;;;;;;31.25;37.35;99179.91;25104;1316;3026971;-61
2022/05/31 10:19:10;;;;;;;34.60;11.90;;;;;;;31.18;37.33;99185.42;25098;1316;3027306;-59
2022/05/31 10:21:42;;;;;;;27.50;9.50;;;;;;;31.12;36.92;99181.18;25059;1315;3049427;-63
2022/05/31 10:24:16;;;;;;;27.30;11.00;;;;;;;31.25;36.89;99178.91;25074;1316;3026655;-62
2022/05/31 10:27:21;;;;;;;23.40;10.10;;;;;;;31.44;36.78;99175.82;24978;1315;3053796;-63
2022/05/31 10:30:02;;;;;;;24.40;10.10;;;;;;;31.62;36.40;99172.16;25121;1315;3069801;-67
2022/05/31 10:32:50;;;;;;;29.70;10.60;;;;;;;31.77;36.19;99175.80;25078;1315;3051462;-63
2022/05/31 10:35:27;;;;;;;24.20;11.20;;;;;;;31.95;36.24;99174.55;25027;1315;3056163;-61
2022/05/31 10:38:10;;;;;;;24.00;10.60;;;;;;;32.18;35.94;99171.59;25042;1315;3055320;-61
2022/05/31 10:40:47;;;;;;;35.00;9.00;;;;;;;32.36;35.30;99169.96;25052;1315;3058956;-61
2022/05/31 10:43:36;;;;;;;32.80;10.70;;;;;;;32.48;35.14;99164.92;25107;1315;3050078;-62
2022/05/31 10:46:13;;;;;;;26.70;9.90;;;;;;;32.62;35.25;99167.23;25061;1315;3051670;-62
2022/05/31 10:48:48;;;;;;;31.40;9.60;;;;;;;32.69;34.57;99164.14;25076;1315;3052074;-61
2022/05/31 10:51:26;;;;;;;43.20;10.70;;;;;;;32.74;34.34;99165.08;25044;1315;3068438;-61
2022/05/31 10:54:07;;;;;;;31.40;9.40;;;;;;;32.83;34.34;99162.66;25033;1315;3049492;-61
2022/05/31 10:56:42;;;;;;;;;;;;;;;32.93;33.87;99160.81;25049;1315;3054972;-61
2022/05/31 10:59:28;;;;;;;26.20;10.70;;;;;;;32.98;33.90;99155.59;25121;1315;3051827;-58
2022/05/31 11:02:19;;;;;;;25.80;9.30;;;;;;;33.06;33.73;99156.60;25099;1314;3057839;-61
2022/05/31 11:05:11;;;;;;;27.30;9.20;;;;;;;32.82;33.46;99159.00;25098;1316;3052110;-60
2022/05/31 11:14:16;;;;;;;32.80;9.60;;;;;;;32.76;33.53;99149.27;25073;1316;3071353;-62
2022/05/31 11:17:01;;;;;;;21.50;8.20;;;;;;;33.09;32.02;99145.00;24960;1315;3050375;-63
2022/05/31 11:19:44;;;;;;;36.60;9.80;;;;;;;33.17;30.86;99144.20;25107;1316;3052877;-63
2022/05/31 11:22:21;;;;;;;34.70;8.70;;;;;;;33.17;31.45;99140.27;25032;1315;3052470;-62
2022/05/31 11:25:06;;;;;;;36.00;8.50;;;;;;;33.10;31.81;99138.92;24980;1315;3056873;-63
2022/05/31 11:28:03;;;;;;;24.20;8.20;;;;;;;33.02;32.36;99133.80;25047;1316;3054064;-62
2022/05/31 11:31:02;;;;;;;27.20;8.40;;;;;;;33.08;31.96;99136.55;25024;1315;3055624;-64
2022/05/31 11:33:51;;;;;;;32.60;9.20;;;;;;;33.26;31.70;99125.56;25053;1316;3054906;-64
2022/05/31 11:36:38;;;;;;;29.40;10.10;;;;;;;33.33;31.88;99124.90;25100;1315;3069863;-63
2022/05/31 11:39:26;;;;;;;35.20;9.30;;;;;;;33.30;32.58;99121.38;25088;1316;3051743;-63
2022/05/31 11:42:34;;;;;;;29.90;9.10;;;;;;;33.21;32.70;99120.84;25066;1315;3055058;-63
2022/05/31 11:45:37;;;;;;;31.60;9.00;;;;;;;33.09;32.88;99122.95;24979;1315;3055371;-62
2022/05/31 11:48:09;;;;;;;35.30;9.70;;;;;;;33.40;32.54;99119.27;25116;1316;3059283;-61
2022/05/31 11:50:54;;;;;;;30.80;9.50;;;;;;;33.56;32.21;99118.78;25042;1316;3027131;-62
2022/05/31 11:53:26;;;;;;;35.20;9.00;;;;;;;33.74;32.28;99111.22;25053;1315;3056571;-65
2022/05/31 11:56:01;;;;;;;32.00;9.00;;;;;;;33.82;31.51;99111.54;25127;1316;3027121;-62
2022/05/31 11:58:35;;;;;;;24.00;8.90;;;;;;;33.74;29.91;99105.66;25057;1316;3070155;-61
2022/05/31 12:01:24;;;;;;;30.40;9.10;;;;;;;33.83;30.03;99103.06;25105;1316;3051015;-63
2022/05/31 12:04:25;;;;;;;21.00;8.40;;;;;;;34.10;29.95;99098.83;25114;1316;3052101;-63
2022/05/31 12:07:15;;;;;;;28.90;8.60;;;;;;;34.22;29.85;99096.37;25029;1315;3054910;-62
2022/05/31 12:09:56;;;;;;;32.10;9.00;;;;;;;34.31;29.04;99090.54;25072;1316;3059173;-63
2022/05/31 12:12:30;;;;;;;30.80;9.00;;;;;;;34.36;29.84;99084.05;25081;1316;3050365;-65
2022/05/31 12:15:14;;;;;;;34.00;10.20;;;;;;;34.42;30.01;99081.70;25103;1316;3056029;-62
2022/05/31 12:17:51;;;;;;;36.10;9.30;;;;;;;34.49;29.80;99077.29;25061;1313;3052362;-61
2022/05/31 12:20:25;;;;;;;23.80;8.50;;;;;;;34.55;29.76;99069.27;25070;1315;3069428;-63